Time;durP1;ratioP1;P1;durP2;ratioP2;P2;SDS_P1;SDS_P2;PMS_P1;PMS_P2;Temp;Humidity;BMP_temperature;BMP_pressure;BME280_temperature;BME280_humidity;BME280_pressure;Samples;Min_cycle;Max_cycle;Signal;HPM_P1;HPM_P2
2021/09/25 00:00:58;;;;;;;9.20;6.47;;;17.20;99.90;;;;;;5021686;28;20049;-85
2021/09/25 00:03:25;;;;;;;9.00;6.82;;;17.20;99.90;;;;;;5031179;28;20041;-84
2021/09/25 00:05:52;;;;;;;8.63;4.82;;;17.20;99.90;;;;;;4984665;28;20424;-90
2021/09/25 00:08:19;;;;;;;6.85;3.65;;;17.30;99.90;;;;;;5026032;28;20416;-82
2021/09/25 00:10:46;;;;;;;7.60;3.60;;;17.30;99.90;;;;;;5002662;28;20050;-77
2021/09/25 00:13:12;;;;;;;5.03;3.83;;;17.30;99.90;;;;;;5046333;28;20032;-76
2021/09/25 00:15:40;;;;;;;6.82;3.95;;;17.30;99.90;;;;;;5015084;28;20479;-75
2021/09/25 00:18:06;;;;;;;7.43;3.15;;;17.30;99.90;;;;;;5026139;28;20898;-77
2021/09/25 00:20:34;;;;;;;5.07;2.90;;;17.30;99.90;;;;;;5028716;28;20048;-76
2021/09/25 00:23:01;;;;;;;5.15;2.90;;;17.30;99.90;;;;;;5024749;28;20495;-76
2021/09/25 00:25:27;;;;;;;2.65;2.00;;;17.30;99.90;;;;;;5012257;28;20052;-76
2021/09/25 00:28:02;;;;;;;6.35;1.98;;;17.30;99.90;;;;;;5026131;28;20045;-76
2021/09/25 00:30:28;;;;;;;4.05;2.10;;;17.30;99.90;;;;;;5025417;28;20037;-78
2021/09/25 00:32:55;;;;;;;3.92;3.08;;;17.30;99.90;;;;;;5030115;28;20029;-79
2021/09/25 00:35:21;;;;;;;7.68;2.95;;;17.30;99.90;;;;;;5058897;28;20064;-77
2021/09/25 00:37:48;;;;;;;9.65;5.53;;;17.30;99.90;;;;;;5026013;28;20056;-77
2021/09/25 00:40:16;;;;;;;18.90;14.25;;;17.30;99.90;;;;;;5030474;28;20048;-77
2021/09/25 00:42:46;;;;;;;11.23;6.88;;;17.40;99.90;;;;;;5029396;28;20045;-81
2021/09/25 00:45:13;;;;;;;7.10;4.60;;;17.40;99.90;;;;;;5031255;28;20041;-79
2021/09/25 00:47:39;;;;;;;5.28;3.33;;;17.40;99.90;;;;;;5031862;28;20037;-81
2021/09/25 00:50:07;;;;;;;4.05;2.53;;;17.40;99.90;;;;;;5015740;28;20053;-79
2021/09/25 00:52:33;;;;;;;4.05;2.13;;;17.40;99.90;;;;;;5028821;28;20044;-82
2021/09/25 00:55:00;;;;;;;4.47;1.92;;;17.40;99.90;;;;;;5027226;28;20796;-81
2021/09/25 00:57:27;;;;;;;4.22;1.90;;;17.40;99.90;;;;;;5015872;28;20056;-81
2021/09/25 00:59:53;;;;;;;2.55;2.00;;;17.40;99.90;;;;;;5013559;28;20057;-80
2021/09/25 01:02:21;;;;;;;4.78;2.08;;;17.40;99.90;;;;;;5028098;28;20037;-84
2021/09/25 01:04:48;;;;;;;3.38;1.90;;;17.30;99.90;;;;;;5012340;28;20699;-86
2021/09/25 01:07:15;;;;;;;4.07;2.28;;;17.30;99.90;;;;;;5014907;28;20754;-84
2021/09/25 01:09:54;;;;;;;3.28;1.80;;;17.30;99.90;;;;;;5028717;28;20041;-85
2021/09/25 01:12:21;;;;;;;5.65;2.95;;;17.30;99.90;;;;;;5044119;28;20527;-81
2021/09/25 01:14:48;;;;;;;3.72;2.25;;;17.30;99.90;;;;;;5021535;28;20046;-80
2021/09/25 01:17:14;;;;;;;4.28;2.28;;;17.30;99.90;;;;;;5026944;28;20041;-83
2021/09/25 01:19:42;;;;;;;3.20;1.63;;;17.30;99.90;;;;;;5009807;28;20413;-82
2021/09/25 01:22:10;;;;;;;3.15;1.50;;;17.30;99.90;;;;;;5027870;28;20361;-81
2021/09/25 01:24:37;;;;;;;4.53;1.95;;;17.20;99.90;;;;;;5007529;28;20053;-82
2021/09/25 01:27:04;;;;;;;4.10;2.05;;;17.30;99.90;;;;;;5024758;28;20041;-85
2021/09/25 01:29:32;;;;;;;3.90;1.33;;;17.20;99.90;;;;;;5029290;28;20040;-80
2021/09/25 01:31:59;;;;;;;4.32;2.03;;;17.20;99.90;;;;;;5028853;28;20056;-77
2021/09/25 01:34:25;;;;;;;3.95;1.63;;;17.20;99.90;;;;;;5048662;28;20060;-77
2021/09/25 01:36:51;;;;;;;9.40;6.55;;;17.20;99.90;;;;;;5026290;28;20400;-77
2021/09/25 01:39:18;;;;;;;12.40;8.98;;;17.20;99.90;;;;;;5015120;28;20492;-79
2021/09/25 01:41:45;;;;;;;8.85;6.53;;;17.20;99.90;;;;;;5015345;28;20148;-78
2021/09/25 01:44:12;;;;;;;12.20;8.27;;;17.20;99.90;;;;;;5026249;28;20061;-78
2021/09/25 01:46:38;;;;;;;8.15;5.90;;;17.20;99.90;;;;;;5031614;28;20050;-79
2021/09/25 01:49:05;;;;;;;9.65;7.75;;;17.20;99.90;;;;;;5030655;28;20053;-79
2021/09/25 01:51:32;;;;;;;7.35;5.90;;;17.20;99.90;;;;;;5011463;28;20128;-78
2021/09/25 01:53:59;;;;;;;9.70;4.60;;;17.20;99.90;;;;;;5030052;28;20034;-82
2021/09/25 01:56:25;;;;;;;6.90;5.15;;;17.20;99.90;;;;;;5012890;28;20056;-76
2021/09/25 01:58:52;;;;;;;6.68;3.90;;;17.20;99.90;;;;;;5027228;28;20041;-78
2021/09/25 02:01:18;;;;;;;5.07;3.63;;;17.20;99.90;;;;;;5013433;28;20549;-78
2021/09/25 02:03:45;;;;;;;8.13;6.13;;;17.20;99.90;;;;;;5029661;28;20045;-78
2021/09/25 02:06:11;;;;;;;7.07;4.80;;;17.20;99.90;;;;;;5010006;28;21371;-76
2021/09/25 02:08:39;;;;;;;9.68;6.10;;;17.20;99.90;;;;;;5027841;28;20036;-77
2021/09/25 02:11:06;;;;;;;6.75;4.50;;;17.20;99.90;;;;;;5028598;28;20037;-77
2021/09/25 02:13:33;;;;;;;6.15;4.20;;;17.20;99.90;;;;;;5023142;28;20204;-78
2021/09/25 02:15:59;;;;;;;5.18;4.00;;;17.20;99.90;;;;;;5018305;28;20063;-82
2021/09/25 02:18:26;;;;;;;7.53;3.97;;;17.10;99.90;;;;;;5010163;28;20053;-82
2021/09/25 02:20:54;;;;;;;5.60;3.58;;;17.20;99.90;;;;;;4983280;28;20745;-82
2021/09/25 02:23:21;;;;;;;5.35;4.20;;;17.10;99.90;;;;;;5027611;28;20052;-88
2021/09/25 02:25:48;;;;;;;5.22;4.38;;;17.10;99.90;;;;;;5011335;28;20392;-80
2021/09/25 02:28:14;;;;;;;7.82;4.40;;;17.10;99.90;;;;;;5011383;28;20028;-84
2021/09/25 02:30:41;;;;;;;10.52;6.10;;;17.10;99.90;;;;;;5013069;28;20057;-80
2021/09/25 02:33:07;;;;;;;7.18;4.53;;;17.10;99.90;;;;;;5032934;28;20044;-83
2021/09/25 02:35:34;;;;;;;12.00;7.60;;;17.10;99.90;;;;;;5016260;28;20132;-83
2021/09/25 02:38:01;;;;;;;11.15;7.72;;;17.10;99.90;;;;;;4994375;28;20056;-81
2021/09/25 02:40:27;;;;;;;8.65;6.30;;;17.00;99.90;;;;;;5016483;28;20400;-81
2021/09/25 02:42:54;;;;;;;5.85;4.30;;;17.00;99.90;;;;;;5030468;28;20940;-81
2021/09/25 02:45:21;;;;;;;8.90;5.10;;;17.00;99.90;;;;;;5011646;28;20049;-79
2021/09/25 02:47:48;;;;;;;6.93;4.25;;;17.00;99.90;;;;;;5006916;28;20075;-86
2021/09/25 02:50:17;;;;;;;9.38;4.90;;;17.00;99.90;;;;;;5008240;28;20409;-82
2021/09/25 02:52:44;;;;;;;7.40;4.53;;;16.90;99.90;;;;;;5011692;28;20519;-82
2021/09/25 02:55:11;;;;;;;8.55;5.60;;;16.90;99.90;;;;;;5025868;28;20040;-81
2021/09/25 02:57:37;;;;;;;7.13;4.97;;;16.90;99.90;;;;;;5006433;28;20041;-81
2021/09/25 03:00:08;;;;;;;6.78;4.43;;;16.80;99.90;;;;;;5025273;28;20041;-84
2021/09/25 03:02:35;;;;;;;7.60;5.07;;;16.80;99.90;;;;;;5009177;28;20037;-83
2021/09/25 03:05:01;;;;;;;6.85;4.85;;;16.80;99.90;;;;;;5041372;28;20029;-80
2021/09/25 03:07:28;;;;;;;8.48;5.38;;;16.70;99.90;;;;;;5028347;28;20494;-81
2021/09/25 03:09:54;;;;;;;8.85;5.80;;;16.70;99.90;;;;;;4991311;28;20501;-80
2021/09/25 03:12:21;;;;;;;9.10;6.60;;;16.70;99.90;;;;;;5030161;28;20045;-81
2021/09/25 03:14:47;;;;;;;8.20;5.88;;;16.70;99.90;;;;;;5021993;28;20046;-79
2021/09/25 03:17:14;;;;;;;7.20;5.15;;;16.60;99.90;;;;;;5007040;28;20045;-80
2021/09/25 03:19:41;;;;;;;10.10;5.18;;;16.60;99.90;;;;;;5012095;28;20495;-80
2021/09/25 03:22:08;;;;;;;8.65;5.70;;;16.60;99.90;;;;;;5029140;28;20511;-85
2021/09/25 03:24:34;;;;;;;7.85;5.43;;;16.60;99.90;;;;;;5010797;28;20033;-81
2021/09/25 03:27:01;;;;;;;8.38;5.85;;;16.60;99.90;;;;;;5026605;28;20484;-81
2021/09/25 03:29:27;;;;;;;8.82;5.95;;;16.60;99.90;;;;;;4997676;28;20049;-80
2021/09/25 03:31:53;;;;;;;7.30;5.35;;;16.60;99.90;;;;;;5027269;28;20484;-80
2021/09/25 03:34:20;;;;;;;8.32;5.75;;;16.60;99.90;;;;;;5012654;28;20075;-80
2021/09/25 03:36:46;;;;;;;7.35;5.38;;;16.50;99.90;;;;;;5048920;28;20048;-80
2021/09/25 03:39:13;;;;;;;8.73;6.45;;;16.50;99.90;;;;;;5026622;28;20041;-79
2021/09/25 03:41:39;;;;;;;11.70;6.80;;;16.60;99.90;;;;;;5016532;28;20044;-79
2021/09/25 03:44:06;;;;;;;8.32;6.03;;;16.60;99.90;;;;;;5030037;28;20035;-82
2021/09/25 03:46:32;;;;;;;9.63;6.40;;;16.60;99.90;;;;;;5053413;28;20041;-77
2021/09/25 03:48:59;;;;;;;6.55;5.15;;;16.60;99.90;;;;;;5010680;28;20068;-84
2021/09/25 03:51:25;;;;;;;6.93;4.50;;;16.60;99.90;;;;;;4998668;28;20049;-83
2021/09/25 03:53:52;;;;;;;6.97;5.25;;;16.60;99.90;;;;;;5013546;28;20048;-85
2021/09/25 03:56:18;;;;;;;7.82;4.97;;;16.60;99.90;;;;;;5012088;28;20045;-90
2021/09/25 03:58:45;;;;;;;9.02;6.30;;;16.60;99.90;;;;;;5033946;28;20048;-85
2021/09/25 04:01:12;;;;;;;9.20;5.55;;;16.70;99.90;;;;;;5033379;28;20037;-79
2021/09/25 04:03:39;;;;;;;8.57;5.50;;;16.70;99.90;;;;;;4994892;28;20049;-79
2021/09/25 04:06:05;;;;;;;10.50;6.97;;;16.70;99.90;;;;;;5013640;28;20041;-80
2021/09/25 04:08:32;;;;;;;9.95;6.80;;;16.70;99.90;;;;;;5014048;28;20053;-79
2021/09/25 04:10:59;;;;;;;9.90;6.50;;;16.70;99.90;;;;;;5016892;28;20065;-79
2021/09/25 04:13:26;;;;;;;9.50;6.20;;;16.70;99.90;;;;;;5031221;28;20044;-81
2021/09/25 04:15:52;;;;;;;8.18;6.28;;;16.70;99.90;;;;;;5014764;28;20508;-80
2021/09/25 04:18:19;;;;;;;8.60;5.88;;;16.70;99.90;;;;;;5015974;28;20128;-78
2021/09/25 04:20:45;;;;;;;12.25;7.18;;;16.70;99.90;;;;;;5032225;28;20044;-79
2021/09/25 04:23:12;;;;;;;8.85;6.63;;;16.70;99.90;;;;;;5015783;28;20045;-82
2021/09/25 04:25:38;;;;;;;12.50;7.28;;;16.70;99.90;;;;;;5047251;28;20045;-83
2021/09/25 04:28:08;;;;;;;9.70;7.25;;;16.70;99.90;;;;;;5012333;28;20045;-85
2021/09/25 04:30:37;;;;;;;9.00;6.43;;;16.70;99.90;;;;;;5012658;28;20041;-84
2021/09/25 04:33:06;;;;;;;8.20;5.85;;;16.70;99.90;;;;;;5009022;28;20038;-79
2021/09/25 04:35:32;;;;;;;10.45;5.88;;;16.70;99.90;;;;;;5023197;28;20872;-79
2021/09/25 04:37:59;;;;;;;10.02;6.28;;;16.70;99.90;;;;;;5025715;28;20052;-77
2021/09/25 04:40:29;;;;;;;9.93;6.78;;;16.70;99.90;;;;;;5031169;28;20045;-78
2021/09/25 04:42:57;;;;;;;10.50;7.28;;;16.70;99.90;;;;;;5028272;28;20042;-78
2021/09/25 04:45:25;;;;;;;8.68;5.80;;;16.70;99.90;;;;;;5013638;28;20504;-79
2021/09/25 04:47:52;;;;;;;10.52;7.03;;;16.70;99.90;;;;;;5049184;28;20049;-78
2021/09/25 04:50:19;;;;;;;9.82;6.20;;;16.70;99.90;;;;;;5017834;28;20041;-84
2021/09/25 04:52:46;;;;;;;11.52;6.97;;;16.70;99.90;;;;;;5032120;28;20049;-82
2021/09/25 04:55:13;;;;;;;10.23;6.40;;;16.70;99.90;;;;;;5034212;28;20488;-81
2021/09/25 04:57:39;;;;;;;9.68;6.80;;;16.60;99.90;;;;;;5048647;28;20515;-81
2021/09/25 05:00:07;;;;;;;11.25;7.10;;;16.70;99.90;;;;;;5030109;28;20040;-80
2021/09/25 05:02:34;;;;;;;9.88;6.75;;;16.60;99.90;;;;;;5013645;28;20053;-80
2021/09/25 05:05:00;;;;;;;9.15;7.35;;;16.60;99.90;;;;;;5030209;28;20049;-80
2021/09/25 05:07:27;;;;;;;9.00;6.55;;;16.60;99.90;;;;;;5010917;28;20065;-81
2021/09/25 05:09:53;;;;;;;9.95;6.90;;;16.60;99.90;;;;;;5031866;28;20045;-80
2021/09/25 05:12:20;;;;;;;9.98;6.82;;;16.60;99.90;;;;;;5001421;28;20042;-82
2021/09/25 05:14:46;;;;;;;10.10;7.15;;;16.60;99.90;;;;;;5010429;28;20033;-83
2021/09/25 05:17:13;;;;;;;7.65;5.88;;;16.60;99.90;;;;;;4994104;28;20063;-81
2021/09/25 05:19:40;;;;;;;10.93;6.50;;;16.60;99.90;;;;;;5031101;28;20049;-81
2021/09/25 05:22:06;;;;;;;10.93;6.68;;;16.60;99.90;;;;;;5030651;28;20041;-80
2021/09/25 05:24:33;;;;;;;8.60;6.13;;;16.60;99.90;;;;;;5014370;28;20545;-80
2021/09/25 05:27:00;;;;;;;9.13;6.93;;;16.60;99.90;;;;;;5016460;28;20045;-81
2021/09/25 05:29:27;;;;;;;10.32;7.25;;;16.60;99.90;;;;;;5031163;28;20052;-81
2021/09/25 05:31:53;;;;;;;9.77;6.40;;;16.60;99.90;;;;;;5014391;28;20049;-80
2021/09/25 05:34:20;;;;;;;8.40;7.10;;;16.60;99.90;;;;;;5013601;28;20049;-81
2021/09/25 05:36:46;;;;;;;13.30;6.95;;;16.60;99.90;;;;;;5009629;28;20037;-84
2021/09/25 05:39:13;;;;;;;7.32;5.55;;;16.60;99.90;;;;;;5010929;28;20060;-81
2021/09/25 05:41:39;;;;;;;9.57;6.43;;;16.60;99.90;;;;;;5025497;28;20041;-82
2021/09/25 05:44:05;;;;;;;7.70;5.95;;;16.60;99.90;;;;;;5005490;28;20057;-82
2021/09/25 05:46:32;;;;;;;9.43;6.75;;;16.60;99.90;;;;;;5008376;28;20040;-82
2021/09/25 05:48:58;;;;;;;6.47;4.95;;;16.70;99.90;;;;;;4993045;28;20057;-83
2021/09/25 05:51:25;;;;;;;7.43;6.03;;;16.70;99.90;;;;;;5013471;28;20049;-81
2021/09/25 05:53:51;;;;;;;10.93;7.45;;;16.70;99.90;;;;;;5038002;28;20033;-83
2021/09/25 05:56:18;;;;;;;15.18;11.25;;;16.70;99.90;;;;;;5022916;28;20037;-81
2021/09/25 05:58:44;;;;;;;16.33;11.30;;;16.70;99.90;;;;;;5007627;28;20791;-79
2021/09/25 06:01:11;;;;;;;16.70;12.32;;;16.70;99.90;;;;;;5010792;28;20053;-81
2021/09/25 06:03:37;;;;;;;15.88;11.93;;;16.70;99.90;;;;;;5009336;28;20040;-83
2021/09/25 06:06:04;;;;;;;22.17;15.20;;;16.70;99.90;;;;;;5005745;28;20034;-83
2021/09/25 06:08:30;;;;;;;17.80;12.00;;;16.70;99.90;;;;;;5010763;28;20045;-81
2021/09/25 06:10:56;;;;;;;13.30;8.40;;;16.70;99.90;;;;;;5009519;28;20056;-82
2021/09/25 06:13:23;;;;;;;10.85;7.88;;;16.70;99.90;;;;;;5011733;28;20374;-83
2021/09/25 06:15:49;;;;;;;11.07;6.35;;;16.70;99.90;;;;;;5013045;28;20033;-83
2021/09/25 06:18:16;;;;;;;7.53;5.18;;;16.70;99.90;;;;;;5008801;28;20053;-83
2021/09/25 06:20:42;;;;;;;8.05;6.03;;;16.80;99.90;;;;;;4997133;28;20041;-83
2021/09/25 06:23:09;;;;;;;8.65;5.82;;;16.80;99.90;;;;;;5025065;28;20033;-81
2021/09/25 06:25:36;;;;;;;8.00;5.82;;;16.80;99.90;;;;;;5009232;28;20060;-83
2021/09/25 06:28:03;;;;;;;8.13;5.57;;;16.80;99.90;;;;;;5009731;28;20488;-83
2021/09/25 06:30:29;;;;;;;7.18;5.35;;;16.80;99.90;;;;;;5012988;28;20049;-83
2021/09/25 06:32:56;;;;;;;8.55;5.85;;;16.80;99.90;;;;;;5013104;28;20049;-83
2021/09/25 06:35:23;;;;;;;7.05;5.43;;;16.90;99.90;;;;;;5009422;28;20049;-84
2021/09/25 06:37:49;;;;;;;8.23;5.13;;;16.90;99.90;;;;;;5024409;28;20044;-83
2021/09/25 06:40:16;;;;;;;9.60;5.57;;;16.90;99.90;;;;;;5029195;28;20041;-84
2021/09/25 06:42:42;;;;;;;7.55;5.75;;;16.90;99.90;;;;;;4995255;28;20052;-80
2021/09/25 06:45:11;;;;;;;8.20;6.22;;;16.90;99.90;;;;;;5028442;28;20044;-83
2021/09/25 06:47:37;;;;;;;7.22;5.68;;;17.00;99.90;;;;;;4996840;28;20049;-83
2021/09/25 06:50:04;;;;;;;8.65;6.03;;;17.00;99.90;;;;;;5026472;28;20116;-80
2021/09/25 06:52:31;;;;;;;6.68;5.18;;;17.00;99.90;;;;;;5010359;28;20053;-80
2021/09/25 06:54:57;;;;;;;8.77;5.90;;;17.10;99.90;;;;;;5027748;28;20045;-85
2021/09/25 06:57:25;;;;;;;8.00;5.35;;;17.10;99.90;;;;;;5006625;28;20054;-81
2021/09/25 06:59:53;;;;;;;9.30;5.93;;;17.10;99.90;;;;;;5028033;28;20377;-82
2021/09/25 07:02:19;;;;;;;7.60;5.22;;;17.20;99.90;;;;;;5015734;28;20060;-80
2021/09/25 07:04:46;;;;;;;6.35;5.22;;;17.20;99.90;;;;;;4997112;28;20072;-80
2021/09/25 07:07:12;;;;;;;10.75;7.03;;;17.30;99.90;;;;;;5010179;28;20045;-79
2021/09/25 07:09:41;;;;;;;10.27;7.03;;;17.30;99.90;;;;;;5000689;28;20809;-79
2021/09/25 07:12:09;;;;;;;11.02;8.00;;;17.40;99.90;;;;;;5032322;28;20041;-79
2021/09/25 07:14:36;;;;;;;10.75;7.57;;;17.40;99.90;;;;;;5029530;28;20033;-78
2021/09/25 07:17:03;;;;;;;12.00;7.50;;;17.50;99.90;;;;;;5048173;28;20039;-79
2021/09/25 07:19:30;;;;;;;8.52;6.40;;;17.50;99.90;;;;;;5013615;28;20492;-79
2021/09/25 07:21:56;;;;;;;8.82;6.22;;;17.50;99.90;;;;;;5009189;28;20072;-78
2021/09/25 07:24:23;;;;;;;9.48;6.43;;;17.60;99.90;;;;;;5008904;28;20057;-79
2021/09/25 07:26:49;;;;;;;8.35;6.15;;;17.60;99.90;;;;;;5010103;28;20056;-80
2021/09/25 07:29:16;;;;;;;10.93;7.13;;;17.70;99.90;;;;;;5028707;28;20044;-81
2021/09/25 07:31:42;;;;;;;10.18;7.35;;;17.70;99.90;;;;;;5046804;28;20033;-81
2021/09/25 07:34:19;;;;;;;10.65;7.57;;;17.80;99.90;;;;;;5031976;28;20033;-81
2021/09/25 07:36:46;;;;;;;10.88;6.72;;;17.80;99.90;;;;;;5033676;28;20033;-81
2021/09/25 07:39:24;;;;;;;10.52;5.95;;;17.80;99.90;;;;;;5021659;28;20061;-80
2021/09/25 07:41:50;;;;;;;9.57;6.68;;;17.90;99.90;;;;;;5018720;28;20837;-81
2021/09/25 07:44:17;;;;;;;9.32;5.93;;;18.00;99.90;;;;;;5011932;28;20056;-81
2021/09/25 07:46:44;;;;;;;8.13;6.40;;;18.00;99.90;;;;;;5014876;28;20054;-80
2021/09/25 07:49:10;;;;;;;11.70;8.82;;;18.00;99.90;;;;;;5014173;28;20045;-80
2021/09/25 07:51:37;;;;;;;13.27;7.40;;;18.10;99.90;;;;;;5002477;28;20037;-81
2021/09/25 07:54:04;;;;;;;11.23;6.75;;;18.10;99.90;;;;;;4996800;28;20050;-81
2021/09/25 07:56:30;;;;;;;17.27;10.27;;;18.10;99.90;;;;;;5033746;28;20044;-81
2021/09/25 07:58:57;;;;;;;12.68;9.25;;;18.10;99.90;;;;;;5011568;28;20048;-81
2021/09/25 08:01:23;;;;;;;14.02;8.98;;;18.10;99.90;;;;;;5010206;28;20358;-82
2021/09/25 08:03:50;;;;;;;11.68;7.78;;;18.20;99.90;;;;;;5026970;28;20037;-81
2021/09/25 08:06:18;;;;;;;9.80;7.05;;;18.20;99.90;;;;;;4990742;28;20049;-82
2021/09/25 08:08:45;;;;;;;12.75;7.93;;;18.30;99.90;;;;;;5025743;28;20033;-82
2021/09/25 08:11:12;;;;;;;7.55;6.07;;;18.30;99.90;;;;;;5032776;28;20037;-80
2021/09/25 08:13:39;;;;;;;10.35;7.45;;;18.30;99.90;;;;;;5011996;28;20052;-82
2021/09/25 08:16:06;;;;;;;13.63;9.52;;;18.40;99.90;;;;;;5015444;28;20044;-81
2021/09/25 08:18:32;;;;;;;19.27;13.38;;;18.40;99.90;;;;;;5006594;28;20056;-81
2021/09/25 08:20:59;;;;;;;14.38;9.52;;;18.50;99.90;;;;;;5033014;28;20052;-81
2021/09/25 08:23:25;;;;;;;20.92;14.98;;;18.50;99.90;;;;;;5035567;28;20050;-81
2021/09/25 08:25:53;;;;;;;14.88;10.82;;;18.60;99.90;;;;;;5033937;28;20049;-80
2021/09/25 08:28:20;;;;;;;13.88;9.13;;;18.70;99.90;;;;;;5014768;28;20030;-81
2021/09/25 08:30:47;;;;;;;9.27;7.05;;;18.70;99.90;;;;;;5017476;28;20464;-83
2021/09/25 08:33:13;;;;;;;12.43;7.72;;;18.70;99.90;;;;;;5014185;28;20049;-82
2021/09/25 08:35:40;;;;;;;10.20;7.32;;;18.80;99.90;;;;;;5030411;28;20029;-81
2021/09/25 08:38:06;;;;;;;9.35;7.03;;;18.80;99.90;;;;;;5014032;28;20072;-80
2021/09/25 08:40:33;;;;;;;11.15;7.72;;;18.80;99.90;;;;;;5032056;28;20063;-81
2021/09/25 08:42:59;;;;;;;10.65;7.25;;;18.90;99.90;;;;;;5016029;28;20496;-80
2021/09/25 08:45:26;;;;;;;10.98;6.97;;;18.90;99.90;;;;;;5012818;28;20874;-83
2021/09/25 08:47:56;;;;;;;10.35;7.55;;;18.90;99.90;;;;;;5007876;28;20523;-82
2021/09/25 08:50:23;;;;;;;10.77;8.20;;;18.90;99.90;;;;;;5029045;28;20036;-80
2021/09/25 08:52:49;;;;;;;10.43;8.13;;;18.90;99.90;;;;;;5012300;28;20772;-85
2021/09/25 08:55:16;;;;;;;9.35;6.78;;;18.90;99.90;;;;;;5025820;28;20045;-81
2021/09/25 08:57:43;;;;;;;13.02;7.85;;;18.90;99.90;;;;;;5016648;28;20053;-85
2021/09/25 09:00:38;;;;;;;12.50;8.48;;;18.90;99.90;;;;;;5026343;28;20052;-84
2021/09/25 09:03:40;;;;;;;11.63;8.02;;;19.00;99.90;;;;;;5012170;28;20049;-81
2021/09/25 09:06:18;;;;;;;12.30;7.45;;;19.00;99.90;;;;;;5013807;28;20064;-80
2021/09/25 09:08:47;;;;;;;10.98;7.78;;;19.00;99.90;;;;;;5009668;28;20060;-81
2021/09/25 09:11:16;;;;;;;12.05;7.18;;;19.00;99.90;;;;;;5019231;28;20056;-81
2021/09/25 09:13:47;;;;;;;12.30;6.68;;;19.10;99.90;;;;;;5015042;28;20050;-81
2021/09/25 09:16:15;;;;;;;9.38;7.03;;;19.10;99.90;;;;;;5033381;28;20056;-81
2021/09/25 09:18:44;;;;;;;9.73;7.72;;;19.10;99.90;;;;;;5008262;28;20492;-80
2021/09/25 09:21:12;;;;;;;10.88;6.63;;;19.10;99.90;;;;;;5032420;28;20045;-84
2021/09/25 09:24:00;;;;;;;10.80;6.95;;;19.10;99.90;;;;;;5010039;28;20037;-86
2021/09/25 09:26:29;;;;;;;9.55;7.15;;;19.10;99.90;;;;;;5028599;28;20037;-81
2021/09/25 09:28:58;;;;;;;8.48;6.18;;;19.10;99.90;;;;;;5009330;28;20370;-83
2021/09/25 09:31:25;;;;;;;12.40;8.45;;;19.10;99.90;;;;;;5043510;28;20045;-84
2021/09/25 09:34:00;;;;;;;12.65;7.82;;;19.20;99.90;;;;;;5010136;28;20041;-84
2021/09/25 09:36:28;;;;;;;14.32;8.60;;;19.30;99.90;;;;;;5025597;28;20489;-83
2021/09/25 09:39:17;;;;;;;10.38;7.95;;;19.30;99.90;;;;;;5028604;28;20471;-83
2021/09/25 09:41:52;;;;;;;10.30;7.15;;;19.40;99.90;;;;;;5028066;28;20499;-82
2021/09/25 09:44:30;;;;;;;10.82;8.10;;;19.40;99.90;;;;;;5028506;28;20042;-83
2021/09/25 09:47:04;;;;;;;13.50;8.52;;;19.50;99.90;;;;;;5027276;28;20057;-82
2021/09/25 09:49:37;;;;;;;15.25;10.10;;;19.50;99.90;;;;;;5031429;28;20045;-82
2021/09/25 09:52:11;;;;;;;10.93;8.27;;;19.50;99.90;;;;;;5027804;28;20044;-82
2021/09/25 09:54:41;;;;;;;12.77;8.90;;;19.50;99.90;;;;;;5027690;28;20049;-82
2021/09/25 09:57:10;;;;;;;12.18;8.85;;;19.60;99.90;;;;;;5027796;28;20038;-82
2021/09/25 09:59:38;;;;;;;10.93;8.63;;;19.70;99.90;;;;;;5014679;28;20153;-83
2021/09/25 10:02:06;;;;;;;11.77;8.68;;;19.70;99.90;;;;;;5027970;28;20469;-83
2021/09/25 10:04:33;;;;;;;12.55;8.85;;;19.80;99.90;;;;;;5030750;28;20037;-81
2021/09/25 10:07:00;;;;;;;11.23;9.85;;;19.80;99.90;;;;;;5027630;28;20052;-81
2021/09/25 10:09:28;;;;;;;13.32;9.02;;;19.90;99.90;;;;;;5026106;28;20041;-82
2021/09/25 10:12:04;;;;;;;11.93;9.05;;;20.00;99.90;;;;;;5010310;28;20052;-81
2021/09/25 10:14:34;;;;;;;11.18;8.48;;;20.10;99.90;;;;;;5014550;28;20408;-81
2021/09/25 10:17:04;;;;;;;11.43;8.05;;;20.10;99.90;;;;;;5025416;28;20053;-82
2021/09/25 10:19:32;;;;;;;13.10;9.32;;;20.20;99.90;;;;;;5018781;28;20041;-82
2021/09/25 10:22:08;;;;;;;12.30;9.13;;;20.30;99.90;;;;;;5009399;28;20053;-83
2021/09/25 10:24:47;;;;;;;13.45;9.30;;;20.30;99.90;;;;;;5010786;28;20068;-82
2021/09/25 10:27:14;;;;;;;13.80;8.20;;;20.40;99.90;;;;;;5006721;28;20049;-82
2021/09/25 10:29:47;;;;;;;12.07;8.07;;;20.50;99.90;;;;;;5012945;28;20053;-82
2021/09/25 10:32:23;;;;;;;13.73;9.27;;;20.60;99.90;;;;;;5010892;28;20404;-82
2021/09/25 10:35:05;;;;;;;12.68;7.68;;;20.70;99.90;;;;;;5035249;28;20923;-84
2021/09/25 10:37:36;;;;;;;11.73;8.07;;;20.70;99.90;;;;;;5026334;28;20037;-83
2021/09/25 10:40:05;;;;;;;10.38;8.35;;;20.80;99.90;;;;;;5011526;28;20049;-81
2021/09/25 10:42:48;;;;;;;9.57;7.40;;;20.80;99.90;;;;;;5007489;28;20061;-82
2021/09/25 10:45:34;;;;;;;12.38;8.18;;;20.80;99.90;;;;;;5028198;28;20693;-84
2021/09/25 10:48:19;;;;;;;11.57;7.93;;;20.90;99.90;;;;;;5021856;28;20501;-85
2021/09/25 10:51:11;;;;;;;12.02;9.07;;;20.90;99.90;;;;;;5027958;28;20087;-81
2021/09/25 10:53:41;;;;;;;13.32;9.25;;;21.00;99.90;;;;;;5013994;28;20049;-81
2021/09/25 10:56:23;;;;;;;12.68;8.75;;;21.00;99.90;;;;;;5013248;28;20048;-81
2021/09/25 10:58:55;;;;;;;11.70;7.93;;;21.10;99.90;;;;;;5028800;28;20045;-81
2021/09/25 11:01:35;;;;;;;12.98;8.73;;;21.20;99.90;;;;;;5032643;28;20040;-82
2021/09/25 11:04:07;;;;;;;12.68;8.73;;;21.40;99.90;;;;;;5011653;28;20057;-83
2021/09/25 11:06:33;;;;;;;;;;;21.50;99.90;;;;;;5008408;28;20492;-86
2021/09/25 11:09:03;;;;;;;12.77;10.13;;;21.60;99.90;;;;;;5011123;28;19921;-81
2021/09/25 11:11:40;;;;;;;14.80;10.15;;;21.60;99.90;;;;;;5029110;28;20388;-81
2021/09/25 11:14:40;;;;;;;13.57;11.07;;;21.70;99.90;;;;;;5025395;28;20025;-81
2021/09/25 11:17:28;;;;;;;13.30;10.38;;;21.60;99.90;;;;;;5009196;28;20073;-80
2021/09/25 11:20:07;;;;;;;13.90;10.60;;;21.70;99.90;;;;;;5012653;28;20041;-81
2021/09/25 11:22:38;;;;;;;14.52;10.90;;;21.70;99.90;;;;;;5022460;28;20033;-81
2021/09/25 11:25:24;;;;;;;13.00;10.40;;;21.80;99.80;;;;;;5031061;28;20044;-83
2021/09/25 11:27:52;;;;;;;11.73;9.90;;;21.90;99.80;;;;;;5025581;28;20068;-81
2021/09/25 11:30:19;;;;;;;16.00;9.43;;;22.00;99.70;;;;;;5012861;28;20041;-84
2021/09/25 11:32:52;;;;;;;15.57;11.15;;;22.00;99.60;;;;;;5017886;28;20041;-81
2021/09/25 11:35:22;;;;;;;17.45;12.32;;;22.00;99.50;;;;;;5047600;28;20036;-81
2021/09/25 11:37:57;;;;;;;18.08;14.43;;;22.00;99.40;;;;;;5008317;28;20062;-81
2021/09/25 11:40:28;;;;;;;14.20;11.32;;;22.10;99.40;;;;;;5033029;28;20025;-80
2021/09/25 11:43:02;;;;;;;19.45;16.73;;;22.10;99.30;;;;;;5015535;28;20029;-85
2021/09/25 11:45:34;;;;;;;15.13;12.82;;;22.20;99.20;;;;;;5016914;28;20036;-80
2021/09/25 11:48:02;;;;;;;14.32;11.35;;;22.20;99.20;;;;;;5029480;28;20505;-78
2021/09/25 11:50:32;;;;;;;15.85;12.05;;;22.30;99.10;;;;;;5034351;28;20025;-78
2021/09/25 11:53:28;;;;;;;15.85;12.32;;;22.30;99.00;;;;;;5020481;28;20044;-80
2021/09/25 11:55:54;;;;;;;17.48;12.57;;;22.40;98.60;;;;;;5032176;28;20046;-80
2021/09/25 11:58:23;;;;;;;12.98;10.77;;;22.40;98.60;;;;;;5031835;28;20033;-82
2021/09/25 12:00:57;;;;;;;13.55;10.90;;;22.50;98.90;;;;;;5033806;28;20044;-86
2021/09/25 12:03:28;;;;;;;13.95;10.32;;;22.50;98.50;;;;;;5015502;28;20052;-86
2021/09/25 12:05:57;;;;;;;12.40;11.10;;;22.70;98.40;;;;;;5013985;28;20051;-84
2021/09/25 12:08:28;;;;;;;15.27;11.07;;;22.70;98.40;;;;;;5012228;28;20041;-81
2021/09/25 12:10:58;;;;;;;17.67;12.90;;;22.80;98.30;;;;;;5017956;28;20049;-83
2021/09/25 12:13:28;;;;;;;16.25;11.02;;;22.90;98.10;;;;;;5027722;28;20488;-81
2021/09/25 12:15:57;;;;;;;16.08;13.63;;;22.90;97.90;;;;;;5017874;28;20060;-82
2021/09/25 12:18:25;;;;;;;17.98;12.18;;;23.00;97.90;;;;;;5034410;28;20503;-81
2021/09/25 12:21:09;;;;;;;16.73;11.27;;;23.10;97.90;;;;;;5036469;28;20060;-80
2021/09/25 12:23:53;;;;;;;15.70;11.82;;;23.10;97.80;;;;;;5027604;28;20033;-84
2021/09/25 12:26:25;;;;;;;16.67;12.75;;;23.10;97.70;;;;;;5025331;28;20048;-78
2021/09/25 12:29:02;;;;;;;18.95;15.68;;;23.20;97.60;;;;;;5054775;28;20538;-78
2021/09/25 12:31:37;;;;;;;17.63;13.18;;;23.20;97.50;;;;;;5028386;28;20045;-82
2021/09/25 12:34:13;;;;;;;15.77;11.52;;;23.20;97.50;;;;;;5013637;28;20060;-81
2021/09/25 12:36:45;;;;;;;15.00;11.45;;;23.20;97.40;;;;;;5030512;28;20040;-81
2021/09/25 12:39:14;;;;;;;;;;;23.30;97.40;;;;;;5017586;28;20048;-79
2021/09/25 12:41:48;;;;;;;15.82;13.13;;;23.40;97.30;;;;;;5035168;28;19916;-78
2021/09/25 12:44:20;;;;;;;14.57;10.43;;;23.40;97.30;;;;;;5024822;28;20618;-80
2021/09/25 12:46:52;;;;;;;16.42;12.15;;;23.40;97.20;;;;;;5045138;28;20040;-78
2021/09/25 12:49:21;;;;;;;11.77;8.98;;;23.40;97.20;;;;;;5024483;28;20828;-84